EDTL

Lahr Airport

Germany
METAR EDTL 171520Z 36004KT 9000 NSC 07/01 Q1024
Observed Flight Rules
Nov-17 @ 15:20 UTC (7 hours ago) Visual Flight Rules
Wind Visibility Clouds
360° at 4 knots 8,996 meters
  • Clear skies
Temperatures Readings
Current 7°C / 45°F
Dewpoint 1°C / 34°F
Humidity 66%
Altimeter 30.24" Hg
Pressure 1024 hPa
Elevation 156
METAR EDTL 171520Z 36004KT 9000 NSC 07/01 Q1024
Observed Flight Rules
Nov-17 @ 15:20 UTC
(7 hours ago)
VFR
Wind Visibility
360° at 4 knots 8,996 meters
Clouds
  • Clear skies
Temperature Dewpoint
7°C / 45°F 1°C / 34°F
Humidity Altimeter Pressure
66% 30.24" Hg 1024 hPa